createdAt,value
2023-03-06T00:01:48.927Z,66.72
2023-03-06T00:05:16.356Z,66.93
2023-03-06T00:08:46.426Z,66.82
2023-03-06T00:12:14.161Z,66.57
2023-03-06T00:15:41.810Z,66.82
2023-03-06T00:19:09.167Z,66.86
2023-03-06T00:22:36.369Z,66.82
2023-03-06T00:26:03.629Z,66.84
2023-03-06T00:29:32.448Z,67.12
2023-03-06T00:32:59.377Z,67.15
2023-03-06T00:36:26.627Z,66.75
2023-03-06T00:39:56.817Z,67.04
2023-03-06T00:43:23.925Z,66.95
2023-03-06T00:46:51.963Z,67.13
2023-03-06T00:50:19.222Z,67.04
2023-03-06T00:53:46.089Z,67.13
2023-03-06T00:57:13.510Z,67.30
2023-03-06T01:00:41.606Z,67.35
2023-03-06T01:04:09.495Z,67.48
2023-03-06T01:07:37.770Z,67.56
2023-03-06T01:11:05.938Z,67.36
2023-03-06T01:14:33.822Z,67.45
2023-03-06T01:18:01.883Z,67.55
2023-03-06T01:21:29.448Z,67.56
2023-03-06T01:24:56.218Z,67.37
2023-03-06T01:28:24.806Z,67.35
2023-03-06T01:31:53.540Z,67.12
2023-03-06T01:35:21.048Z,67.18
2023-03-06T01:38:48.907Z,67.13
2023-03-06T01:42:19.574Z,66.93
2023-03-06T01:46:25.253Z,66.48
2023-03-06T01:49:52.463Z,66.82
2023-03-06T01:53:23.002Z,66.64
2023-03-06T01:56:54.466Z,66.83
2023-03-06T02:00:26.750Z,66.90
2023-03-06T02:03:55.041Z,66.50
2023-03-06T02:07:25.802Z,66.80
2023-03-06T02:11:03.753Z,66.72
2023-03-06T02:14:31.602Z,67.01
2023-03-06T02:17:59.059Z,67.20
2023-03-06T02:21:28.896Z,66.95
2023-03-06T02:25:04.147Z,67.20
2023-03-06T02:28:31.142Z,67.25
2023-03-06T02:31:59.821Z,67.01
2023-03-06T02:35:30.495Z,67.05
2023-03-06T02:38:58.904Z,66.89
2023-03-06T02:42:30.140Z,66.93
2023-03-06T02:45:57.682Z,67.08
2023-03-06T02:49:26.512Z,66.93
2023-03-06T02:52:53.924Z,66.86
2023-03-06T02:56:21.162Z,66.64
2023-03-06T02:59:48.396Z,66.64
2023-03-06T03:03:16.196Z,66.70
2023-03-06T03:06:42.902Z,66.51
2023-03-06T03:10:13.162Z,66.75
2023-03-06T03:13:40.897Z,66.58
2023-03-06T03:17:10.640Z,66.67
2023-03-06T03:20:38.427Z,66.87
2023-03-06T03:24:06.398Z,66.95
2023-03-06T03:27:33.339Z,66.80
2023-03-06T03:31:03.431Z,66.78
2023-03-06T03:34:31.316Z,66.70
2023-03-06T03:37:58.622Z,66.58
2023-03-06T03:41:25.514Z,66.62
2023-03-06T03:44:52.009Z,66.18
2023-03-06T03:48:20.043Z,66.26
2023-03-06T03:51:47.169Z,66.21
2023-03-06T03:55:15.324Z,66.09
2023-03-06T03:58:42.625Z,66.00
2023-03-06T04:02:09.874Z,66.06
2023-03-06T04:05:42.842Z,66.18
2023-03-06T04:09:10.779Z,66.30
2023-03-06T04:12:39.201Z,66.29
2023-03-06T04:16:07.042Z,65.88
2023-03-06T04:19:35.392Z,66.34
2023-03-06T04:23:03.486Z,66.51
2023-03-06T04:26:31.356Z,66.59
2023-03-06T04:29:58.658Z,66.83
2023-03-06T04:33:25.749Z,66.98
2023-03-06T04:36:53.755Z,66.77
2023-03-06T04:40:23.781Z,66.48
2023-03-06T04:43:50.445Z,66.25
2023-03-06T04:47:19.064Z,66.30
2023-03-06T04:50:46.110Z,66.42
2023-03-06T04:54:12.934Z,65.94
2023-03-06T04:57:40.954Z,66.11
2023-03-06T05:01:08.243Z,66.23
2023-03-06T05:04:35.150Z,66.03
2023-03-06T05:08:02.144Z,65.85
2023-03-06T05:11:29.259Z,66.08
2023-03-06T05:14:55.859Z,66.15
2023-03-06T05:18:23.393Z,65.77
2023-03-06T05:21:50.337Z,65.97
2023-03-06T05:25:17.055Z,66.18
2023-03-06T05:28:44.074Z,65.89
2023-03-06T05:32:11.677Z,66.13
2023-03-06T05:35:38.876Z,66.04
2023-03-06T05:39:06.571Z,66.22
2023-03-06T05:42:35.151Z,66.28
2023-03-06T05:46:08.194Z,66.49
2023-03-06T05:49:37.287Z,66.14
2023-03-06T05:53:05.257Z,66.60
2023-03-06T05:56:32.244Z,66.56
2023-03-06T05:59:58.968Z,66.88
2023-03-06T06:03:25.667Z,66.88
2023-03-06T06:06:58.300Z,66.75
2023-03-06T06:10:24.779Z,66.63
2023-03-06T06:13:53.023Z,66.94
2023-03-06T06:17:20.629Z,66.79
2023-03-06T06:20:47.590Z,67.16
2023-03-06T06:24:15.155Z,67.11
2023-03-06T06:27:42.166Z,67.15
2023-03-06T06:31:13.746Z,67.17
2023-03-06T06:34:40.626Z,67.02
2023-03-06T06:38:07.461Z,67.08
2023-03-06T06:41:51.019Z,66.84
2023-03-06T06:45:20.678Z,67.21
2023-03-06T06:48:48.903Z,67.44
2023-03-06T06:52:16.162Z,67.35
2023-03-06T06:55:43.168Z,67.32
2023-03-06T06:59:16.697Z,67.40
2023-03-06T07:02:44.044Z,67.52
2023-03-06T07:06:11.494Z,67.58
2023-03-06T07:09:40.030Z,67.44
2023-03-06T07:13:06.623Z,67.70
2023-03-06T07:16:33.634Z,67.67
2023-03-06T07:20:00.894Z,67.90
2023-03-06T07:23:29.036Z,67.97
2023-03-06T07:26:57.226Z,68.08
2023-03-06T07:30:37.160Z,68.28
2023-03-06T07:34:14.977Z,68.08
2023-03-06T07:37:44.716Z,68.16
2023-03-06T07:41:14.777Z,68.24
2023-03-06T07:44:42.237Z,68.21
2023-03-06T07:48:10.525Z,68.31
2023-03-06T07:51:38.232Z,68.37
2023-03-06T07:55:07.559Z,68.50
2023-03-06T07:58:35.215Z,68.54
2023-03-06T08:02:02.934Z,68.50
2023-03-06T08:05:32.132Z,68.68
2023-03-06T08:08:59.453Z,68.76
2023-03-06T08:12:26.184Z,68.86
2023-03-06T08:15:53.042Z,68.95
2023-03-06T08:19:20.331Z,69.02
2023-03-06T08:22:50.466Z,69.04
2023-03-06T08:26:19.364Z,69.01
2023-03-06T08:29:46.230Z,68.93
2023-03-06T08:33:12.996Z,69.08
2023-03-06T08:36:40.199Z,69.24
2023-03-06T08:40:08.013Z,69.16
2023-03-06T08:43:36.565Z,69.11
2023-03-06T08:47:05.982Z,69.16
2023-03-06T08:50:32.886Z,69.33
2023-03-06T08:54:00.339Z,69.27
2023-03-06T08:57:27.202Z,69.28
2023-03-06T09:00:54.385Z,69.10
2023-03-06T09:04:20.998Z,69.10
2023-03-06T09:07:47.655Z,69.15
2023-03-06T09:11:16.129Z,69.44
2023-03-06T09:14:43.158Z,69.56
2023-03-06T09:18:09.967Z,69.50
2023-03-06T09:21:36.688Z,69.45
2023-03-06T09:25:05.177Z,69.40
2023-03-06T09:28:32.541Z,69.40
2023-03-06T09:32:00.208Z,69.55
2023-03-06T09:35:27.102Z,69.46
2023-03-06T09:38:53.951Z,69.41
2023-03-06T09:42:23.933Z,69.38
2023-03-06T09:45:50.898Z,69.11
2023-03-06T09:50:00.978Z,69.20
2023-03-06T09:53:40.840Z,69.07
2023-03-06T09:57:15.816Z,69.06
2023-03-06T10:00:48.416Z,69.02
2023-03-06T10:04:32.881Z,69.10
2023-03-06T10:08:03.319Z,68.95
2023-03-06T10:11:38.219Z,69.02
2023-03-06T10:15:15.611Z,69.09
2023-03-06T10:18:43.520Z,68.86
2023-03-06T10:22:27.488Z,68.75
2023-03-06T10:26:01.181Z,68.74
2023-03-06T10:30:01.732Z,68.70
2023-03-06T10:33:43.655Z,68.59
2023-03-06T10:37:20.104Z,68.51
2023-03-06T10:40:55.506Z,68.43
2023-03-06T10:44:27.643Z,68.31
2023-03-06T10:48:13.159Z,68.32
2023-03-06T10:51:39.486Z,68.47
2023-03-06T10:55:29.410Z,68.33
2023-03-06T10:59:08.768Z,68.23
2023-03-06T11:02:38.789Z,68.26
2023-03-06T11:06:13.443Z,68.33
2023-03-06T11:09:40.413Z,68.01
2023-03-06T11:13:22.623Z,67.90
2023-03-06T11:16:54.605Z,68.05
2023-03-06T11:20:23.688Z,67.77
2023-03-06T11:23:51.700Z,67.57
2023-03-06T11:27:30.575Z,67.42
2023-03-06T11:31:08.502Z,67.34
2023-03-06T11:34:44.057Z,67.04
2023-03-06T11:38:18.139Z,67.07
2023-03-06T11:41:54.211Z,66.89
2023-03-06T11:45:32.103Z,66.76
2023-03-06T11:49:07.053Z,66.75
2023-03-06T11:52:45.078Z,66.59
2023-03-06T11:56:26.564Z,66.52
2023-03-06T12:00:23.378Z,66.50
2023-03-06T12:04:08.544Z,66.45
2023-03-06T12:07:37.586Z,66.65
2023-03-06T12:11:12.874Z,66.44
2023-03-06T12:14:54.340Z,66.14
2023-03-06T12:18:34.760Z,65.96
2023-03-06T12:22:17.373Z,65.76
2023-03-06T12:25:49.810Z,65.88
2023-03-06T12:29:36.560Z,65.84
2023-03-06T12:33:12.960Z,65.65
2023-03-06T12:37:01.049Z,65.52
2023-03-06T12:40:59.336Z,65.37
2023-03-06T12:44:57.173Z,65.33
2023-03-06T12:48:28.339Z,65.25
2023-03-06T12:51:55.935Z,65.16
2023-03-06T12:55:25.992Z,65.35
2023-03-06T12:58:57.682Z,65.20
2023-03-06T13:02:42.947Z,65.33
2023-03-06T13:06:23.780Z,65.29
2023-03-06T13:10:07.855Z,64.98
2023-03-06T13:13:43.241Z,65.22
2023-03-06T13:17:33.865Z,65.35
2023-03-06T13:21:00.978Z,65.24
2023-03-06T13:24:28.683Z,65.20
2023-03-06T13:28:06.097Z,65.29
2023-03-06T13:32:06.091Z,65.28
2023-03-06T13:35:55.157Z,65.34
2023-03-06T13:39:22.140Z,65.35
2023-03-06T13:43:15.811Z,65.35
2023-03-06T13:46:44.010Z,65.43
2023-03-06T13:50:28.763Z,65.41
2023-03-06T13:54:30.452Z,65.53
2023-03-06T13:58:15.516Z,65.56
2023-03-06T14:01:58.060Z,65.68
2023-03-06T14:05:25.955Z,65.47
2023-03-06T14:08:52.760Z,65.50
2023-03-06T14:12:26.124Z,65.45
2023-03-06T14:15:51.886Z,65.67
2023-03-06T14:19:20.538Z,65.87
2023-03-06T14:22:47.518Z,65.85
2023-03-06T14:26:19.035Z,66.00
2023-03-06T14:29:49.035Z,65.89
2023-03-06T14:33:27.293Z,65.74
2023-03-06T14:36:56.394Z,65.69
2023-03-06T14:40:31.571Z,65.65
2023-03-06T14:44:11.043Z,65.73
2023-03-06T14:47:38.786Z,65.81
2023-03-06T14:51:05.997Z,65.83
2023-03-06T14:54:38.227Z,65.88
2023-03-06T14:58:13.176Z,65.84
2023-03-06T15:01:42.761Z,65.90
2023-03-06T15:05:21.229Z,65.80
2023-03-06T15:08:57.926Z,65.85
2023-03-06T15:12:40.649Z,65.96
2023-03-06T15:16:10.167Z,65.94
2023-03-06T15:19:45.195Z,65.90
2023-03-06T15:23:21.779Z,65.98
2023-03-06T15:26:57.096Z,65.83
2023-03-06T15:30:39.711Z,66.04
2023-03-06T15:34:28.951Z,65.91
2023-03-06T15:37:55.872Z,66.03
2023-03-06T15:41:30.713Z,66.09
2023-03-06T15:45:03.234Z,66.00
2023-03-06T15:48:31.947Z,66.07
2023-03-06T15:51:59.212Z,66.03
2023-03-06T15:55:29.827Z,66.05
2023-03-06T15:58:59.054Z,66.13
2023-03-06T16:02:26.947Z,66.24
2023-03-06T16:05:53.731Z,66.35
2023-03-06T16:09:20.833Z,66.38
2023-03-06T16:12:51.371Z,66.49
2023-03-06T16:16:24.201Z,66.45
2023-03-06T16:19:51.174Z,66.30
2023-03-06T16:23:18.360Z,66.23
2023-03-06T16:26:47.368Z,66.26
2023-03-06T16:30:20.867Z,66.20
2023-03-06T16:33:48.693Z,66.12
2023-03-06T16:37:18.028Z,66.09
2023-03-06T16:40:44.911Z,66.07
2023-03-06T16:44:12.108Z,65.99
2023-03-06T16:47:38.844Z,65.93
2023-03-06T16:51:11.266Z,66.07
2023-03-06T16:54:38.731Z,65.97
2023-03-06T16:58:06.997Z,66.04
2023-03-06T17:01:35.256Z,65.91
2023-03-06T17:05:07.943Z,65.94
2023-03-06T17:08:35.128Z,65.78
2023-03-06T17:12:06.024Z,65.95
2023-03-06T17:15:34.405Z,65.90
2023-03-06T17:19:07.467Z,65.77
2023-03-06T17:22:38.950Z,66.16
2023-03-06T17:26:13.513Z,65.97
2023-03-06T17:29:45.724Z,66.13
2023-03-06T17:33:17.133Z,66.17
2023-03-06T17:36:45.675Z,66.00
2023-03-06T17:40:20.242Z,66.07
2023-03-06T17:43:47.114Z,66.24
2023-03-06T17:47:14.430Z,66.14
2023-03-06T17:50:41.877Z,66.18
2023-03-06T17:54:09.754Z,66.31
2023-03-06T17:57:37.838Z,66.44
2023-03-06T18:01:14.100Z,66.38
2023-03-06T18:04:43.421Z,66.31
2023-03-06T18:08:10.979Z,66.35
2023-03-06T18:11:38.442Z,66.23
2023-03-06T18:15:06.005Z,66.15
2023-03-06T18:18:33.785Z,66.17
2023-03-06T18:22:01.609Z,66.24
2023-03-06T18:25:28.709Z,66.27
2023-03-06T18:28:58.434Z,66.30
2023-03-06T18:32:26.540Z,66.15
2023-03-06T18:35:53.843Z,66.25
2023-03-06T18:39:21.689Z,66.20
2023-03-06T18:42:49.316Z,66.26
2023-03-06T18:46:16.162Z,66.27
2023-03-06T18:49:45.274Z,66.41
2023-03-06T18:53:15.107Z,66.34
2023-03-06T18:56:44.883Z,66.29
2023-03-06T19:00:20.171Z,66.08
2023-03-06T19:03:48.998Z,66.09
2023-03-06T19:07:21.960Z,66.25
2023-03-06T19:10:47.840Z,66.20
2023-03-06T19:14:19.644Z,66.31
2023-03-06T19:17:49.726Z,66.39
2023-03-06T19:21:21.056Z,66.46
2023-03-06T19:24:55.368Z,66.44
2023-03-06T19:28:22.737Z,66.69
2023-03-06T19:31:51.582Z,66.71
2023-03-06T19:35:22.264Z,66.76
2023-03-06T19:38:53.076Z,66.65
2023-03-06T19:42:22.441Z,66.61
2023-03-06T19:45:49.940Z,66.79
2023-03-06T19:49:23.132Z,66.56
2023-03-06T19:52:50.238Z,66.53
2023-03-06T19:56:20.509Z,66.62
2023-03-06T19:59:50.301Z,66.48
2023-03-06T20:03:18.042Z,66.66
2023-03-06T20:06:47.402Z,66.67
2023-03-06T20:10:16.965Z,66.61
2023-03-06T20:13:47.686Z,66.66
2023-03-06T20:17:20.711Z,66.68
2023-03-06T20:21:02.514Z,66.65
2023-03-06T20:24:29.803Z,66.49
2023-03-06T20:28:03.122Z,66.70
2023-03-06T20:31:34.836Z,66.70
2023-03-06T20:35:11.146Z,66.62
2023-03-06T20:38:39.402Z,66.74
2023-03-06T20:42:09.058Z,66.83
2023-03-06T20:45:39.172Z,67.01
2023-03-06T20:49:09.757Z,66.96
2023-03-06T20:52:43.060Z,67.09
2023-03-06T20:56:15.760Z,66.86
2023-03-06T20:59:52.564Z,66.98
2023-03-06T21:03:20.712Z,66.97
2023-03-06T21:06:50.156Z,67.01
2023-03-06T21:10:26.286Z,67.11
2023-03-06T21:13:58.125Z,67.17
2023-03-06T21:17:25.908Z,67.05
2023-03-06T21:20:54.806Z,67.05
2023-03-06T21:24:23.025Z,67.05
2023-03-06T21:27:54.242Z,67.02
2023-03-06T21:31:23.395Z,66.94
2023-03-06T21:34:51.970Z,66.90
2023-03-06T21:38:19.164Z,66.72
2023-03-06T21:41:50.085Z,66.74
2023-03-06T21:45:18.530Z,66.75
2023-03-06T21:48:48.255Z,66.77
2023-03-06T21:52:15.040Z,66.73
2023-03-06T21:55:43.582Z,66.70
2023-03-06T21:59:13.348Z,66.76
2023-03-06T22:02:41.836Z,66.86
2023-03-06T22:06:19.489Z,66.76
2023-03-06T22:09:56.126Z,66.86
2023-03-06T22:13:27.148Z,67.02
2023-03-06T22:17:05.184Z,66.93
2023-03-06T22:20:33.557Z,66.90
2023-03-06T22:24:03.742Z,66.98
2023-03-06T22:27:35.359Z,67.12
2023-03-06T22:31:11.599Z,67.20
2023-03-06T22:34:42.799Z,67.43
2023-03-06T22:38:16.536Z,67.35
2023-03-06T22:41:49.877Z,67.41
2023-03-06T22:45:20.647Z,67.38
2023-03-06T22:48:50.146Z,67.33
2023-03-06T22:52:19.760Z,67.39
2023-03-06T22:55:50.247Z,67.52
2023-03-06T22:59:18.973Z,67.34
2023-03-06T23:02:47.494Z,67.23
2023-03-06T23:06:17.137Z,67.25
2023-03-06T23:09:44.273Z,67.28
2023-03-06T23:13:30.120Z,67.30
2023-03-06T23:17:17.398Z,67.33
2023-03-06T23:21:15.733Z,67.33
2023-03-06T23:25:02.847Z,67.40
2023-03-06T23:28:33.440Z,67.49
2023-03-06T23:32:01.740Z,67.31
2023-03-06T23:35:30.314Z,67.18
2023-03-06T23:38:59.270Z,67.20
2023-03-06T23:42:26.736Z,67.23
2023-03-06T23:45:59.185Z,67.21
2023-03-06T23:49:28.494Z,67.37
2023-03-06T23:53:03.117Z,67.42
2023-03-06T23:56:34.177Z,67.49
